WLF2559 KMIA-LTFM
Flight info
| Callsign | WLF2559 |
|---|---|
| Flight time | N/A |
| Altitude | 28000 |
| Route | FOLZZ3 ALYRA DCT GRUBR/N0504F290 Y299 SEELO DCT WAALT Q131 KALDA DCT ZJAAY Q167 RIFLE DCT YAHOO DCT WHALE N93B SUPRY/M084F320 DCT 46N050W 48N040W 50N030W 51N020W DCT DINIM DCT ELSOX/M084F330 DCT GAPLI/N0489F330 DCT LIZAD DCT JSY DCT TURDU DCT TADUP DCT TEPRI DCT POGZI DCT GELTA DCT LUVAL DCT BEGAR DCT TRA DCT GAMSA DCT GEDSO DCT LUMUS DCT SOMUN DCT NISVA DCT DEDIN DCT AYTEK |
| Aircraft | B77L/H-SDE1E2E3FGHIJ2J3J4J5M1RWXY/LB1D1 |
Departure
| Time | N/A |
|---|---|
| Airport | Miami International Airport (KMIA) |
Arrival
| Time | 2026-05-04 02:30 |
|---|---|
| Airport | İstanbul Airport (LTFM) |
| Time | Latitude | Longitude | Altitude | Speed | Heading |
|---|---|---|---|---|---|
| 2026-05-03 23:09 | 49.29035 | -2.45255 | 32968 ft | 490 kts | 109° |
| 2026-05-03 23:09 | 49.27327 | -2.35140 | 32958 ft | 491 kts | 109° |
| 2026-05-03 23:10 | 49.25604 | -2.25026 | 32955 ft | 491 kts | 109° |
| 2026-05-03 23:10 | 49.23888 | -2.14985 | 32967 ft | 490 kts | 110° |
| 2026-05-03 23:11 | 49.22184 | -2.04871 | 32961 ft | 493 kts | 107° |
| 2026-05-03 23:11 | 49.21238 | -1.94425 | 32979 ft | 497 kts | 101° |
| 2026-05-03 23:12 | 49.20491 | -1.83901 | 32965 ft | 498 kts | 101° |
| 2026-05-03 23:12 | 49.19707 | -1.73385 | 32935 ft | 498 kts | 102° |
| 2026-05-03 23:13 | 49.18886 | -1.62885 | 32951 ft | 498 kts | 102° |
| 2026-05-03 23:13 | 49.18050 | -1.52380 | 32961 ft | 498 kts | 102° |
| 2026-05-03 23:14 | 49.17204 | -1.41868 | 32959 ft | 499 kts | 102° |
| 2026-05-03 23:14 | 49.16348 | -1.31344 | 32922 ft | 499 kts | 103° |
| 2026-05-03 23:15 | 49.15486 | -1.20845 | 32952 ft | 498 kts | 103° |
| 2026-05-03 23:15 | 49.14614 | -1.10348 | 32957 ft | 498 kts | 103° |
| 2026-05-03 23:16 | 49.13735 | -0.99863 | 32960 ft | 498 kts | 103° |
| 2026-05-03 23:16 | 49.12843 | -0.89366 | 32961 ft | 498 kts | 103° |
| 2026-05-03 23:17 | 49.11942 | -0.78877 | 32965 ft | 498 kts | 104° |
| 2026-05-03 23:17 | 49.11031 | -0.68394 | 32972 ft | 498 kts | 104° |
| 2026-05-03 23:18 | 49.10119 | -0.57989 | 32962 ft | 498 kts | 104° |
| 2026-05-03 23:18 | 49.09187 | -0.47493 | 32965 ft | 498 kts | 105° |
| 2026-05-03 23:19 | 49.07863 | -0.37192 | 32960 ft | 493 kts | 110° |
| 2026-05-03 23:19 | 49.06286 | -0.27021 | 32957 ft | 493 kts | 110° |
| 2026-05-03 23:20 | 49.04718 | -0.16851 | 32960 ft | 493 kts | 110° |
| 2026-05-03 23:20 | 49.03195 | -0.06733 | 32963 ft | 493 kts | 110° |
| 2026-05-03 23:21 | 49.01666 | 0.03454 | 32937 ft | 493 kts | 110° |
| 2026-05-03 23:21 | 49.00125 | 0.13642 | 32969 ft | 494 kts | 110° |
| 2026-05-03 23:22 | 48.97786 | 0.28954 | 32960 ft | 496 kts | 110° |
| 2026-05-03 23:22 | 48.96214 | 0.39178 | 32955 ft | 497 kts | 110° |
| 2026-05-03 23:23 | 48.94898 | 0.47687 | 32940 ft | 497 kts | 111° |
| 2026-05-03 23:23 | 48.93295 | 0.57895 | 32959 ft | 496 kts | 111° |
| 2026-05-03 23:24 | 48.91612 | 0.68081 | 32964 ft | 497 kts | 112° |
| 2026-05-03 23:24 | 48.89903 | 0.78260 | 32963 ft | 497 kts | 112° |
| 2026-05-03 23:25 | 48.88194 | 0.88446 | 32933 ft | 498 kts | 112° |
| 2026-05-03 23:25 | 48.86478 | 0.98631 | 32961 ft | 498 kts | 112° |
| 2026-05-03 23:26 | 48.84766 | 1.08743 | 32968 ft | 498 kts | 112° |
| 2026-05-03 23:26 | 48.83035 | 1.18933 | 32962 ft | 498 kts | 112° |
| 2026-05-03 23:27 | 48.81294 | 1.29109 | 32965 ft | 498 kts | 112° |
| 2026-05-03 23:27 | 48.79541 | 1.39289 | 32950 ft | 499 kts | 112° |
| 2026-05-03 23:28 | 48.77777 | 1.49466 | 32960 ft | 500 kts | 112° |
| 2026-05-03 23:28 | 48.76001 | 1.59664 | 32965 ft | 501 kts | 112° |
| 2026-05-03 23:29 | 48.74213 | 1.69870 | 32962 ft | 502 kts | 112° |
| 2026-05-03 23:29 | 48.72409 | 1.80102 | 32959 ft | 503 kts | 112° |
| 2026-05-03 23:30 | 48.70592 | 1.90360 | 32971 ft | 506 kts | 112° |
| 2026-05-03 23:30 | 48.68757 | 2.00666 | 32973 ft | 507 kts | 112° |
| 2026-05-03 23:31 | 48.66918 | 2.10917 | 32969 ft | 509 kts | 112° |
| 2026-05-03 23:31 | 48.65058 | 2.21240 | 32948 ft | 509 kts | 112° |
| 2026-05-03 23:32 | 48.63187 | 2.31571 | 32957 ft | 509 kts | 112° |
| 2026-05-03 23:32 | 48.61306 | 2.41889 | 32968 ft | 508 kts | 112° |
| 2026-05-03 23:33 | 48.59419 | 2.52186 | 32967 ft | 508 kts | 112° |
| 2026-05-03 23:33 | 48.57560 | 2.62271 | 32935 ft | 507 kts | 112° |
| 2026-05-03 23:34 | 48.55718 | 2.72538 | 32967 ft | 509 kts | 108° |
| 2026-05-03 23:34 | 48.54827 | 2.82941 | 32972 ft | 519 kts | 97° |
| 2026-05-03 23:35 | 48.54608 | 2.93847 | 32968 ft | 520 kts | 98° |
| 2026-05-03 23:35 | 48.54266 | 3.04619 | 32950 ft | 519 kts | 98° |
| 2026-05-03 23:36 | 48.53872 | 3.15509 | 32967 ft | 521 kts | 98° |
| 2026-05-03 23:36 | 48.53495 | 3.25891 | 32980 ft | 522 kts | 98° |
| 2026-05-03 23:37 | 48.53107 | 3.36576 | 32980 ft | 523 kts | 98° |
| 2026-05-03 23:37 | 48.52712 | 3.47176 | 32950 ft | 524 kts | 98° |
| 2026-05-03 23:38 | 48.52293 | 3.58131 | 32985 ft | 524 kts | 97° |
| 2026-05-03 23:38 | 48.51886 | 3.68513 | 32980 ft | 524 kts | 98° |
| 2026-05-03 23:39 | 48.51451 | 3.79354 | 32969 ft | 524 kts | 98° |
| 2026-05-03 23:39 | 48.51008 | 3.90133 | 32967 ft | 523 kts | 98° |
| 2026-05-03 23:40 | 48.50485 | 4.00838 | 32983 ft | 520 kts | 102° |
| 2026-05-03 23:40 | 48.49057 | 4.10793 | 32991 ft | 512 kts | 111° |
| 2026-05-03 23:41 | 48.47136 | 4.20873 | 32985 ft | 512 kts | 111° |
| 2026-05-03 23:41 | 48.45245 | 4.30959 | 32961 ft | 513 kts | 111° |
| 2026-05-03 23:42 | 48.43393 | 4.41017 | 32980 ft | 512 kts | 110° |
| 2026-05-03 23:42 | 48.41587 | 4.50821 | 32993 ft | 512 kts | 111° |
| 2026-05-03 23:43 | 48.39691 | 4.61020 | 32991 ft | 512 kts | 111° |
| 2026-05-03 23:43 | 48.37763 | 4.71319 | 33000 ft | 512 kts | 111° |
| 2026-05-03 23:44 | 48.35977 | 4.80818 | 32996 ft | 511 kts | 111° |
| 2026-05-03 23:44 | 48.34167 | 4.90404 | 32998 ft | 510 kts | 111° |
| 2026-05-03 23:45 | 48.32270 | 5.00383 | 33002 ft | 509 kts | 111° |
| 2026-05-03 23:45 | 48.30338 | 5.10507 | 33004 ft | 509 kts | 111° |
| 2026-05-03 23:46 | 48.28570 | 5.20573 | 32999 ft | 509 kts | 107° |
| 2026-05-03 23:46 | 48.27115 | 5.30469 | 33003 ft | 507 kts | 107° |
| 2026-05-03 23:47 | 48.25633 | 5.40662 | 33011 ft | 505 kts | 107° |
| 2026-05-03 23:47 | 48.24174 | 5.50475 | 33024 ft | 505 kts | 107° |
| 2026-05-03 23:48 | 48.22628 | 5.60722 | 33003 ft | 504 kts | 107° |
| 2026-05-03 23:48 | 48.21098 | 5.70781 | 33016 ft | 503 kts | 107° |
| 2026-05-03 23:49 | 48.19544 | 5.80913 | 33024 ft | 503 kts | 107° |
| 2026-05-03 23:49 | 48.17968 | 5.91132 | 33022 ft | 503 kts | 107° |
| 2026-05-03 23:50 | 48.16656 | 5.99618 | 32997 ft | 503 kts | 107° |
| 2026-05-03 23:50 | 48.14801 | 6.11532 | 33014 ft | 502 kts | 107° |
| 2026-05-03 23:51 | 48.13205 | 6.21697 | 33027 ft | 501 kts | 107° |
| 2026-05-03 23:51 | 48.11604 | 6.31837 | 33019 ft | 500 kts | 107° |
| 2026-05-03 23:52 | 48.09995 | 6.41958 | 33003 ft | 500 kts | 107° |
| 2026-05-03 23:52 | 48.08393 | 6.51989 | 33020 ft | 499 kts | 107° |
| 2026-05-03 23:53 | 48.06772 | 6.62068 | 33027 ft | 498 kts | 107° |
| 2026-05-03 23:53 | 48.05171 | 6.71953 | 33030 ft | 498 kts | 107° |
| 2026-05-03 23:54 | 48.03533 | 6.82020 | 33008 ft | 498 kts | 107° |
| 2026-05-03 23:54 | 48.01944 | 6.91722 | 33022 ft | 498 kts | 107° |
| 2026-05-03 23:55 | 48.00316 | 7.01622 | 33021 ft | 498 kts | 107° |
| 2026-05-03 23:55 | 47.98744 | 7.11102 | 33023 ft | 499 kts | 107° |
| 2026-05-03 23:56 | 47.97118 | 7.20859 | 33013 ft | 500 kts | 107° |
| 2026-05-03 23:56 | 47.95433 | 7.30945 | 33014 ft | 502 kts | 107° |
| 2026-05-03 23:57 | 47.93726 | 7.41053 | 33033 ft | 503 kts | 107° |
| 2026-05-03 23:57 | 47.92013 | 7.51178 | 33024 ft | 504 kts | 107° |
| 2026-05-03 23:58 | 47.90152 | 7.61244 | 33021 ft | 502 kts | 113° |
| 2026-05-03 23:58 | 47.87685 | 7.70962 | 33035 ft | 502 kts | 114° |
| 2026-05-03 23:59 | 47.85175 | 7.80674 | 33041 ft | 504 kts | 114° |
| 2026-05-03 23:59 | 47.82683 | 7.90434 | 33035 ft | 504 kts | 114° |
| 2026-05-04 00:00 | 47.80204 | 8.00187 | 33043 ft | 504 kts | 114° |
| 2026-05-04 00:00 | 47.77712 | 8.09916 | 33042 ft | 504 kts | 114° |
| 2026-05-04 00:01 | 47.75222 | 8.19623 | 33050 ft | 503 kts | 114° |
| 2026-05-04 00:01 | 47.72720 | 8.29336 | 33040 ft | 502 kts | 114° |
| 2026-05-04 00:02 | 47.70230 | 8.38962 | 33037 ft | 502 kts | 114° |
| 2026-05-04 00:02 | 47.67758 | 8.48727 | 33063 ft | 502 kts | 112° |
| 2026-05-04 00:03 | 47.65567 | 8.58489 | 33067 ft | 502 kts | 111° |
| 2026-05-04 00:03 | 47.63390 | 8.68328 | 33070 ft | 502 kts | 111° |
| 2026-05-04 00:04 | 47.61167 | 8.78144 | 33064 ft | 502 kts | 112° |
| 2026-05-04 00:04 | 47.58909 | 8.87957 | 33060 ft | 502 kts | 111° |
| 2026-05-04 00:05 | 47.56646 | 8.97750 | 33059 ft | 502 kts | 111° |
| 2026-05-04 00:05 | 47.54380 | 9.07520 | 33060 ft | 502 kts | 112° |
| 2026-05-04 00:06 | 47.52123 | 9.17216 | 33058 ft | 501 kts | 112° |
| 2026-05-04 00:06 | 47.49844 | 9.26955 | 33054 ft | 501 kts | 112° |
| 2026-05-04 00:07 | 47.47552 | 9.36693 | 33064 ft | 501 kts | 111° |
| 2026-05-04 00:07 | 47.45259 | 9.46426 | 33070 ft | 501 kts | 112° |
| 2026-05-04 00:08 | 47.42956 | 9.56144 | 33079 ft | 501 kts | 112° |
| 2026-05-04 00:08 | 47.40796 | 9.65452 | 33066 ft | 502 kts | 108° |
| 2026-05-04 00:09 | 47.39474 | 9.74109 | 33081 ft | 504 kts | 103° |
| 2026-05-04 00:09 | 47.38344 | 9.82635 | 33079 ft | 505 kts | 103° |
| 2026-05-04 00:10 | 47.37070 | 9.92088 | 33060 ft | 504 kts | 103° |
| 2026-05-04 00:10 | 47.35889 | 10.00636 | 33056 ft | 505 kts | 103° |
| 2026-05-04 00:11 | 47.34526 | 10.10325 | 33067 ft | 505 kts | 103° |
| 2026-05-04 00:11 | 47.33230 | 10.19462 | 33074 ft | 505 kts | 103° |
| 2026-05-04 00:12 | 47.32052 | 10.27726 | 33051 ft | 505 kts | 103° |
| 2026-05-04 00:12 | 47.30374 | 10.39414 | 33075 ft | 504 kts | 104° |
| 2026-05-04 00:13 | 47.28935 | 10.49376 | 33084 ft | 504 kts | 104° |
| 2026-05-04 00:13 | 47.27704 | 10.57837 | 33093 ft | 504 kts | 104° |
| 2026-05-04 00:14 | 47.26231 | 10.67935 | 33099 ft | 504 kts | 104° |
| 2026-05-04 00:14 | 47.24767 | 10.77891 | 33092 ft | 504 kts | 104° |
| 2026-05-04 00:15 | 47.23278 | 10.87956 | 33107 ft | 503 kts | 104° |
| 2026-05-04 00:15 | 47.21782 | 10.97994 | 33123 ft | 502 kts | 104° |
| 2026-05-04 00:16 | 47.20279 | 11.08002 | 33107 ft | 501 kts | 104° |
| 2026-05-04 00:16 | 47.18777 | 11.17973 | 33136 ft | 500 kts | 104° |
| 2026-05-04 00:17 | 47.17264 | 11.27948 | 33044 ft | 501 kts | 104° |
| 2026-05-04 00:17 | 47.15712 | 11.37869 | 33042 ft | 498 kts | 105° |
| 2026-05-04 00:18 | 47.14185 | 11.47839 | 33055 ft | 502 kts | 104° |
| 2026-05-04 00:18 | 47.12680 | 11.57756 | 33086 ft | 504 kts | 104° |
| 2026-05-04 00:19 | 47.11119 | 11.67811 | 33092 ft | 507 kts | 104° |
| 2026-05-04 00:19 | 47.09558 | 11.77765 | 33093 ft | 505 kts | 104° |
| 2026-05-04 00:20 | 47.07999 | 11.87441 | 33111 ft | 500 kts | 105° |
| 2026-05-04 00:20 | 47.06213 | 11.96713 | 33114 ft | 498 kts | 108° |
| 2026-05-04 00:21 | 47.04182 | 12.06435 | 33110 ft | 499 kts | 109° |
| 2026-05-04 00:21 | 47.02143 | 12.16159 | 33114 ft | 500 kts | 109° |
| 2026-05-04 00:22 | 47.00122 | 12.25886 | 33144 ft | 501 kts | 108° |
| 2026-05-04 00:22 | 46.98103 | 12.35616 | 33143 ft | 501 kts | 108° |
| 2026-05-04 00:23 | 46.96097 | 12.45265 | 33137 ft | 500 kts | 108° |
| 2026-05-04 00:23 | 46.94155 | 12.54529 | 33132 ft | 501 kts | 108° |
| 2026-05-04 00:24 | 46.92135 | 12.64129 | 33120 ft | 500 kts | 109° |
| 2026-05-04 00:24 | 46.90184 | 12.73369 | 33110 ft | 499 kts | 109° |
| 2026-05-04 00:25 | 46.88266 | 12.82398 | 33110 ft | 499 kts | 108° |
| 2026-05-04 00:25 | 46.86322 | 12.91513 | 33108 ft | 499 kts | 109° |
| 2026-05-04 00:26 | 46.84373 | 13.00613 | 33103 ft | 499 kts | 109° |
| 2026-05-04 00:26 | 46.82336 | 13.10090 | 33106 ft | 499 kts | 109° |
| 2026-05-04 00:27 | 46.80251 | 13.19725 | 33116 ft | 499 kts | 108° |
| 2026-05-04 00:27 | 46.78146 | 13.29416 | 33124 ft | 502 kts | 108° |
| 2026-05-04 00:28 | 46.76029 | 13.39114 | 33121 ft | 502 kts | 109° |
| 2026-05-04 00:28 | 46.73905 | 13.48809 | 33119 ft | 501 kts | 109° |
| 2026-05-04 00:29 | 46.71769 | 13.58502 | 33110 ft | 502 kts | 108° |
| 2026-05-04 00:29 | 46.69628 | 13.68188 | 33121 ft | 503 kts | 108° |
| 2026-05-04 00:30 | 46.67468 | 13.77899 | 33116 ft | 504 kts | 108° |
| 2026-05-04 00:30 | 46.65301 | 13.87615 | 33123 ft | 504 kts | 108° |
| 2026-05-04 00:31 | 46.63126 | 13.97324 | 33125 ft | 504 kts | 108° |
| 2026-05-04 00:31 | 46.60959 | 14.06925 | 33116 ft | 502 kts | 108° |
| 2026-05-04 00:32 | 46.58665 | 14.16473 | 33109 ft | 498 kts | 113° |
| 2026-05-04 00:32 | 46.55510 | 14.25399 | 33093 ft | 495 kts | 119° |
| 2026-05-04 00:33 | 46.50532 | 14.38541 | 33118 ft | 496 kts | 119° |
| 2026-05-04 00:34 | 46.47249 | 14.47322 | 33100 ft | 494 kts | 119° |
| 2026-05-04 00:34 | 46.43971 | 14.56130 | 33105 ft | 497 kts | 118° |
| 2026-05-04 00:35 | 46.40667 | 14.64978 | 33113 ft | 501 kts | 118° |
| 2026-05-04 00:35 | 46.37331 | 14.73839 | 33769 ft | 496 kts | 118° |
| 2026-05-04 00:35 | 46.35689 | 14.78207 | 34221 ft | 492 kts | 118° |
| 2026-05-04 00:36 | 46.34060 | 14.82562 | 34571 ft | 490 kts | 118° |
| 2026-05-04 00:36 | 46.32431 | 14.86899 | 34841 ft | 491 kts | 118° |
| 2026-05-04 00:36 | 46.30793 | 14.91238 | 35019 ft | 492 kts | 118° |
| 2026-05-04 00:37 | 46.27492 | 14.99941 | 35081 ft | 493 kts | 118° |
| 2026-05-04 00:37 | 46.24227 | 15.08528 | 35101 ft | 489 kts | 118° |
| 2026-05-04 00:38 | 46.20952 | 15.17117 | 35098 ft | 488 kts | 118° |
| 2026-05-04 00:38 | 46.17674 | 15.25689 | 35101 ft | 487 kts | 118° |
| 2026-05-04 00:39 | 46.14393 | 15.34243 | 35105 ft | 488 kts | 117° |
| 2026-05-04 00:39 | 46.11095 | 15.42824 | 35102 ft | 490 kts | 118° |
| 2026-05-04 00:40 | 46.07767 | 15.51439 | 35110 ft | 493 kts | 118° |
| 2026-05-04 00:40 | 46.04420 | 15.60082 | 35109 ft | 495 kts | 118° |
| 2026-05-04 00:41 | 46.01055 | 15.68746 | 35111 ft | 496 kts | 118° |
| 2026-05-04 00:41 | 45.97674 | 15.77427 | 35104 ft | 497 kts | 118° |
| 2026-05-04 00:42 | 45.94289 | 15.86082 | 35099 ft | 497 kts | 118° |
| 2026-05-04 00:42 | 45.90899 | 15.94734 | 35105 ft | 497 kts | 118° |
| 2026-05-04 00:43 | 45.87574 | 16.03163 | 35105 ft | 496 kts | 118° |
| 2026-05-04 00:43 | 45.84191 | 16.11759 | 35107 ft | 496 kts | 118° |
| 2026-05-04 00:44 | 45.80788 | 16.20364 | 35098 ft | 496 kts | 118° |
| 2026-05-04 00:44 | 45.77374 | 16.28961 | 35101 ft | 496 kts | 118° |
| 2026-05-04 00:45 | 45.73953 | 16.37547 | 35110 ft | 497 kts | 118° |
| 2026-05-04 00:45 | 45.70525 | 16.46126 | 35107 ft | 497 kts | 118° |
| 2026-05-04 00:46 | 45.67087 | 16.54706 | 35106 ft | 498 kts | 118° |
| 2026-05-04 00:46 | 45.63636 | 16.63291 | 35109 ft | 498 kts | 118° |
| 2026-05-04 00:47 | 45.60173 | 16.71875 | 35114 ft | 499 kts | 118° |
| 2026-05-04 00:47 | 45.56706 | 16.80453 | 35104 ft | 499 kts | 118° |
| 2026-05-04 00:48 | 45.53226 | 16.89031 | 35105 ft | 499 kts | 118° |
| 2026-05-04 00:48 | 45.49765 | 16.97538 | 35118 ft | 499 kts | 118° |
| 2026-05-04 00:49 | 45.46269 | 17.06095 | 35118 ft | 499 kts | 118° |
| 2026-05-04 00:49 | 45.42769 | 17.14638 | 35107 ft | 499 kts | 118° |
| 2026-05-04 00:50 | 45.39266 | 17.23172 | 35119 ft | 499 kts | 118° |
| 2026-05-04 00:50 | 45.35762 | 17.31684 | 35129 ft | 499 kts | 118° |
| 2026-05-04 00:51 | 45.32252 | 17.40181 | 35118 ft | 498 kts | 118° |
| 2026-05-04 00:51 | 45.28763 | 17.48594 | 35121 ft | 497 kts | 118° |
| 2026-05-04 00:52 | 45.25249 | 17.57044 | 35120 ft | 497 kts | 118° |
| 2026-05-04 00:52 | 45.21729 | 17.65487 | 35122 ft | 497 kts | 118° |
| 2026-05-04 00:53 | 45.18204 | 17.73917 | 35123 ft | 497 kts | 118° |
| 2026-05-04 00:53 | 45.14671 | 17.82338 | 35125 ft | 497 kts | 118° |
| 2026-05-04 00:54 | 45.11130 | 17.90755 | 35128 ft | 497 kts | 118° |
| 2026-05-04 00:54 | 45.07588 | 17.99149 | 35141 ft | 498 kts | 117° |
| 2026-05-04 00:55 | 45.04032 | 18.07554 | 35138 ft | 498 kts | 117° |
| 2026-05-04 00:55 | 45.00474 | 18.15940 | 35137 ft | 498 kts | 118° |
| 2026-05-04 00:56 | 44.96901 | 18.24326 | 35159 ft | 498 kts | 118° |
| 2026-05-04 00:56 | 44.93432 | 18.32446 | 35155 ft | 498 kts | 117° |
| 2026-05-04 00:57 | 44.89847 | 18.40819 | 35143 ft | 499 kts | 117° |
| 2026-05-04 00:57 | 44.86248 | 18.49200 | 35147 ft | 499 kts | 117° |
| 2026-05-04 00:58 | 44.82663 | 18.57523 | 35161 ft | 500 kts | 117° |
| 2026-05-04 00:58 | 44.79054 | 18.65880 | 35157 ft | 501 kts | 117° |
| 2026-05-04 00:59 | 44.75509 | 18.74055 | 35155 ft | 502 kts | 117° |
| 2026-05-04 00:59 | 44.71889 | 18.82387 | 35166 ft | 502 kts | 117° |
| 2026-05-04 01:00 | 44.68397 | 18.90404 | 35158 ft | 502 kts | 117° |
| 2026-05-04 01:00 | 44.64740 | 18.98775 | 35173 ft | 503 kts | 117° |
| 2026-05-04 01:01 | 44.61079 | 19.07129 | 35174 ft | 503 kts | 118° |
| 2026-05-04 01:01 | 44.58193 | 19.13767 | 35161 ft | 502 kts | 117° |
| 2026-05-04 01:02 | 44.54871 | 19.21779 | 35180 ft | 501 kts | 116° |
| 2026-05-04 01:02 | 44.51445 | 19.30155 | 35177 ft | 501 kts | 116° |
| 2026-05-04 01:03 | 44.48057 | 19.38368 | 35178 ft | 501 kts | 116° |
| 2026-05-04 01:03 | 44.44780 | 19.46252 | 35187 ft | 501 kts | 116° |
| 2026-05-04 01:04 | 44.41448 | 19.54222 | 35191 ft | 501 kts | 116° |
| 2026-05-04 01:04 | 44.38240 | 19.61876 | 35188 ft | 500 kts | 116° |
| 2026-05-04 01:05 | 44.35019 | 19.69549 | 35193 ft | 499 kts | 116° |
| 2026-05-04 01:05 | 44.31897 | 19.76963 | 35191 ft | 499 kts | 116° |
| 2026-05-04 01:06 | 44.28626 | 19.84712 | 35204 ft | 498 kts | 116° |
| 2026-05-04 01:06 | 44.25124 | 19.92983 | 35201 ft | 498 kts | 116° |
| 2026-05-04 01:07 | 44.21667 | 20.01133 | 35202 ft | 498 kts | 116° |
| 2026-05-04 01:07 | 44.18190 | 20.09292 | 35221 ft | 497 kts | 116° |
| 2026-05-04 01:08 | 44.14871 | 20.17068 | 35207 ft | 498 kts | 116° |
| 2026-05-04 01:08 | 44.11522 | 20.24892 | 35208 ft | 498 kts | 116° |
| 2026-05-04 01:09 | 44.08287 | 20.32429 | 35210 ft | 498 kts | 116° |
| 2026-05-04 01:09 | 44.05201 | 20.39599 | 35226 ft | 498 kts | 116° |
| 2026-05-04 01:10 | 44.02025 | 20.46961 | 35213 ft | 499 kts | 116° |
| 2026-05-04 01:10 | 43.98846 | 20.54311 | 35209 ft | 499 kts | 117° |
| 2026-05-04 01:11 | 43.95978 | 20.60921 | 35214 ft | 499 kts | 117° |
| 2026-05-04 01:11 | 43.92733 | 20.68389 | 35226 ft | 499 kts | 117° |
| 2026-05-04 01:12 | 43.89882 | 20.74934 | 35214 ft | 499 kts | 116° |
| 2026-05-04 01:12 | 43.87029 | 20.81465 | 35204 ft | 499 kts | 116° |
| 2026-05-04 01:13 | 43.84310 | 20.87679 | 35199 ft | 499 kts | 117° |
| 2026-05-04 01:13 | 43.81564 | 20.93939 | 35195 ft | 499 kts | 117° |
| 2026-05-04 01:14 | 43.78748 | 21.00344 | 35228 ft | 499 kts | 116° |
| 2026-05-04 01:14 | 43.75774 | 21.07095 | 35210 ft | 499 kts | 117° |
| 2026-05-04 01:15 | 43.72683 | 21.14095 | 35203 ft | 499 kts | 117° |
| 2026-05-04 01:15 | 43.69620 | 21.21014 | 35200 ft | 499 kts | 117° |
| 2026-05-04 01:16 | 43.66885 | 21.27174 | 35235 ft | 499 kts | 117° |
| 2026-05-04 01:16 | 43.63733 | 21.34264 | 35195 ft | 499 kts | 117° |
| 2026-05-04 01:17 | 43.60854 | 21.40721 | 35200 ft | 498 kts | 117° |
| 2026-05-04 01:17 | 43.57835 | 21.47479 | 35196 ft | 498 kts | 117° |
| 2026-05-04 01:18 | 43.54845 | 21.54154 | 35198 ft | 498 kts | 117° |
| 2026-05-04 01:18 | 43.52125 | 21.60217 | 35216 ft | 499 kts | 117° |
| 2026-05-04 01:19 | 43.48924 | 21.67335 | 35208 ft | 499 kts | 117° |
| 2026-05-04 01:19 | 43.45902 | 21.74038 | 35201 ft | 499 kts | 117° |
| 2026-05-04 01:20 | 43.43039 | 21.80374 | 35207 ft | 498 kts | 117° |
| 2026-05-04 01:20 | 43.40335 | 21.86343 | 35208 ft | 498 kts | 117° |
| 2026-05-04 01:21 | 43.37524 | 21.92542 | 35212 ft | 498 kts | 117° |
| 2026-05-04 01:21 | 43.34519 | 21.99153 | 35214 ft | 499 kts | 117° |
| 2026-05-04 01:22 | 43.31556 | 22.05651 | 35207 ft | 499 kts | 117° |
| 2026-05-04 01:22 | 43.28458 | 22.12435 | 35234 ft | 499 kts | 117° |
| 2026-05-04 01:23 | 43.25603 | 22.18671 | 35215 ft | 500 kts | 117° |
| 2026-05-04 01:23 | 43.22682 | 22.25038 | 35212 ft | 500 kts | 117° |
| 2026-05-04 01:24 | 43.19898 | 22.31092 | 35200 ft | 499 kts | 117° |
| 2026-05-04 01:24 | 43.17139 | 22.37079 | 35212 ft | 498 kts | 117° |
| 2026-05-04 01:25 | 43.14327 | 22.43169 | 35226 ft | 497 kts | 117° |
| 2026-05-04 01:25 | 43.11541 | 22.49194 | 35206 ft | 496 kts | 117° |
| 2026-05-04 01:26 | 43.08814 | 22.55076 | 35203 ft | 495 kts | 117° |
| 2026-05-04 01:26 | 43.06089 | 22.60945 | 35210 ft | 495 kts | 117° |
| 2026-05-04 01:27 | 43.03302 | 22.66939 | 35209 ft | 494 kts | 117° |
| 2026-05-04 01:27 | 43.00478 | 22.72997 | 35218 ft | 495 kts | 117° |
| 2026-05-04 01:28 | 42.97602 | 22.79365 | 35216 ft | 492 kts | 113° |
| 2026-05-04 01:28 | 42.94959 | 22.87547 | 35214 ft | 485 kts | 105° |
| 2026-05-04 01:29 | 42.92636 | 22.95769 | 35203 ft | 485 kts | 105° |
| 2026-05-04 01:29 | 42.90179 | 23.04336 | 35205 ft | 485 kts | 106° |
| 2026-05-04 01:30 | 42.87690 | 23.12888 | 35192 ft | 485 kts | 107° |
| 2026-05-04 01:30 | 42.85191 | 23.21405 | 35187 ft | 484 kts | 107° |
| 2026-05-04 01:31 | 42.82691 | 23.29912 | 35228 ft | 483 kts | 107° |
| 2026-05-04 01:31 | 42.80185 | 23.38414 | 35193 ft | 483 kts | 107° |
| 2026-05-04 01:32 | 42.77678 | 23.46893 | 35178 ft | 483 kts | 107° |
| 2026-05-04 01:32 | 42.75179 | 23.55320 | 35181 ft | 483 kts | 108° |
| 2026-05-04 01:33 | 42.72660 | 23.63785 | 35203 ft | 483 kts | 108° |
| 2026-05-04 01:33 | 42.70135 | 23.72242 | 35192 ft | 483 kts | 108° |
| 2026-05-04 01:34 | 42.67623 | 23.80628 | 35174 ft | 483 kts | 108° |
| 2026-05-04 01:34 | 42.65452 | 23.87856 | 35178 ft | 484 kts | 108° |
| 2026-05-04 01:35 | 42.63531 | 23.94233 | 35187 ft | 484 kts | 109° |
| 2026-05-04 01:35 | 42.61577 | 24.00710 | 35187 ft | 483 kts | 109° |
| 2026-05-04 01:36 | 42.59654 | 24.07059 | 35177 ft | 483 kts | 109° |
| 2026-05-04 01:36 | 42.57641 | 24.13451 | 35183 ft | 483 kts | 110° |
| 2026-05-04 01:37 | 42.55353 | 24.20306 | 35170 ft | 484 kts | 111° |
| 2026-05-04 01:37 | 42.53098 | 24.26984 | 35175 ft | 484 kts | 111° |
| 2026-05-04 01:38 | 42.50582 | 24.34466 | 35166 ft | 484 kts | 111° |
| 2026-05-04 01:38 | 42.47863 | 24.42591 | 35162 ft | 484 kts | 111° |
| 2026-05-04 01:39 | 42.45090 | 24.50874 | 35177 ft | 484 kts | 111° |
| 2026-05-04 01:39 | 42.42302 | 24.59180 | 35150 ft | 484 kts | 111° |
| 2026-05-04 01:40 | 42.39504 | 24.67473 | 35153 ft | 484 kts | 111° |
| 2026-05-04 01:40 | 42.36708 | 24.75747 | 35148 ft | 483 kts | 112° |
| 2026-05-04 01:41 | 42.33909 | 24.84006 | 35152 ft | 483 kts | 112° |
| 2026-05-04 01:41 | 42.31109 | 24.92244 | 35145 ft | 483 kts | 112° |
| 2026-05-04 01:42 | 42.28299 | 25.00482 | 35145 ft | 482 kts | 112° |
| 2026-05-04 01:42 | 42.25491 | 25.08697 | 35169 ft | 482 kts | 112° |
| 2026-05-04 01:43 | 42.22672 | 25.16912 | 35151 ft | 482 kts | 112° |
| 2026-05-04 01:43 | 42.19852 | 25.25102 | 35143 ft | 481 kts | 112° |
| 2026-05-04 01:44 | 42.17034 | 25.33272 | 35138 ft | 480 kts | 112° |
| 2026-05-04 01:44 | 42.14212 | 25.41423 | 35145 ft | 479 kts | 112° |
| 2026-05-04 01:45 | 42.11389 | 25.49558 | 35135 ft | 479 kts | 112° |
| 2026-05-04 01:45 | 42.07152 | 25.61717 | 35132 ft | 478 kts | 112° |
| 2026-05-04 01:46 | 42.04315 | 25.69827 | 35130 ft | 478 kts | 113° |
| 2026-05-04 01:46 | 42.01954 | 25.76564 | 35133 ft | 479 kts | 113° |
| 2026-05-04 01:47 | 41.98648 | 25.85982 | 35136 ft | 480 kts | 113° |
| 2026-05-04 01:47 | 41.95920 | 25.93718 | 35135 ft | 481 kts | 113° |
| 2026-05-04 01:48 | 41.94492 | 25.97761 | 34922 ft | 486 kts | 113° |
| 2026-05-04 01:48 | 41.93030 | 26.01895 | 34079 ft | 497 kts | 113° |
| 2026-05-04 01:48 | 41.91631 | 26.05841 | 33240 ft | 497 kts | 114° |
| 2026-05-04 01:48 | 41.90847 | 26.08046 | 32871 ft | 494 kts | 114° |
| 2026-05-04 01:49 | 41.89710 | 26.11245 | 32124 ft | 481 kts | 115° |
| 2026-05-04 01:49 | 41.88519 | 26.14592 | 31382 ft | 467 kts | 115° |
| 2026-05-04 01:49 | 41.87202 | 26.18292 | 30562 ft | 453 kts | 116° |
| 2026-05-04 01:49 | 41.85947 | 26.21817 | 30014 ft | 434 kts | 117° |
| 2026-05-04 01:50 | 41.84733 | 26.25218 | 29580 ft | 413 kts | 117° |
| 2026-05-04 01:50 | 41.83652 | 26.28242 | 29467 ft | 398 kts | 116° |
| 2026-05-04 01:50 | 41.82732 | 26.30812 | 29319 ft | 390 kts | 116° |
| 2026-05-04 01:50 | 41.81872 | 26.33215 | 29215 ft | 381 kts | 116° |
| 2026-05-04 01:51 | 41.81022 | 26.35585 | 29093 ft | 374 kts | 116° |
| 2026-05-04 01:51 | 41.80195 | 26.38096 | 28868 ft | 376 kts | 112° |
| 2026-05-04 01:51 | 41.79472 | 26.40675 | 28710 ft | 389 kts | 110° |
| 2026-05-04 01:51 | 41.78801 | 26.43258 | 28601 ft | 394 kts | 110° |
| 2026-05-04 01:52 | 41.78077 | 26.46070 | 28344 ft | 395 kts | 110° |
| 2026-05-04 01:52 | 41.77358 | 26.48784 | 28018 ft | 395 kts | 110° |
| 2026-05-04 01:52 | 41.76657 | 26.51370 | 27690 ft | 395 kts | 110° |
| 2026-05-04 01:52 | 41.75957 | 26.53915 | 27404 ft | 394 kts | 111° |
| 2026-05-04 01:53 | 41.75167 | 26.56411 | 27131 ft | 393 kts | 116° |
| 2026-05-04 01:53 | 41.74245 | 26.58805 | 26890 ft | 391 kts | 119° |
| 2026-05-04 01:53 | 41.73164 | 26.61120 | 26648 ft | 389 kts | 123° |
| 2026-05-04 01:53 | 41.72024 | 26.63383 | 26388 ft | 388 kts | 123° |
| 2026-05-04 01:54 | 41.70864 | 26.65684 | 26108 ft | 388 kts | 123° |
| 2026-05-04 01:54 | 41.69773 | 26.67857 | 25836 ft | 387 kts | 122° |
| 2026-05-04 01:54 | 41.68632 | 26.70148 | 25566 ft | 387 kts | 122° |
| 2026-05-04 01:54 | 41.67522 | 26.72384 | 25319 ft | 386 kts | 122° |
| 2026-05-04 01:55 | 41.66412 | 26.74620 | 25075 ft | 385 kts | 122° |
| 2026-05-04 01:55 | 41.65305 | 26.76800 | 24816 ft | 382 kts | 126° |
| 2026-05-04 01:55 | 41.63909 | 26.78756 | 24449 ft | 387 kts | 140° |
| 2026-05-04 01:55 | 41.62075 | 26.80292 | 24111 ft | 392 kts | 152° |
| 2026-05-04 01:56 | 41.60137 | 26.81246 | 23854 ft | 395 kts | 164° |
| 2026-05-04 01:56 | 41.58107 | 26.81722 | 23635 ft | 395 kts | 169° |
| 2026-05-04 01:56 | 41.56096 | 26.82084 | 23387 ft | 394 kts | 169° |
| 2026-05-04 01:56 | 41.54067 | 26.82468 | 23135 ft | 393 kts | 169° |
| 2026-05-04 01:57 | 41.52021 | 26.82883 | 22882 ft | 392 kts | 168° |
| 2026-05-04 01:57 | 41.49959 | 26.83395 | 22586 ft | 385 kts | 161° |
| 2026-05-04 01:57 | 41.48105 | 26.84471 | 22174 ft | 382 kts | 143° |
| 2026-05-04 01:57 | 41.46587 | 26.86179 | 21842 ft | 379 kts | 130° |
| 2026-05-04 01:58 | 41.45415 | 26.88200 | 21622 ft | 374 kts | 118° |
| 2026-05-04 01:58 | 41.44556 | 26.90420 | 21394 ft | 371 kts | 111° |
| 2026-05-04 01:58 | 41.43713 | 26.93036 | 21121 ft | 370 kts | 110° |
| 2026-05-04 01:58 | 41.42838 | 26.95873 | 20834 ft | 369 kts | 110° |
| 2026-05-04 01:59 | 41.42104 | 26.98210 | 20626 ft | 368 kts | 111° |
| 2026-05-04 01:59 | 41.41353 | 27.00539 | 20415 ft | 367 kts | 111° |
| 2026-05-04 01:59 | 41.40603 | 27.02821 | 20205 ft | 366 kts | 111° |
| 2026-05-04 01:59 | 41.39828 | 27.05128 | 20012 ft | 363 kts | 114° |
| 2026-05-04 02:00 | 41.38860 | 27.07267 | 19724 ft | 368 kts | 125° |
| 2026-05-04 02:00 | 41.37566 | 27.09208 | 19470 ft | 371 kts | 134° |
| 2026-05-04 02:00 | 41.36092 | 27.10848 | 19277 ft | 372 kts | 143° |
| 2026-05-04 02:00 | 41.34499 | 27.12171 | 19102 ft | 370 kts | 147° |
| 2026-05-04 02:01 | 41.32838 | 27.13460 | 18865 ft | 367 kts | 147° |
| 2026-05-04 02:01 | 41.31144 | 27.14761 | 18599 ft | 365 kts | 147° |
| 2026-05-04 02:01 | 41.29487 | 27.16037 | 18334 ft | 364 kts | 147° |
| 2026-05-04 02:01 | 41.27786 | 27.17358 | 18041 ft | 365 kts | 147° |
| 2026-05-04 02:02 | 41.26060 | 27.18710 | 17744 ft | 367 kts | 146° |
| 2026-05-04 02:02 | 41.24399 | 27.20022 | 17452 ft | 368 kts | 146° |
| 2026-05-04 02:02 | 41.22493 | 27.21531 | 17130 ft | 365 kts | 146° |
| 2026-05-04 02:02 | 41.20438 | 27.23157 | 16776 ft | 361 kts | 146° |
| 2026-05-04 02:03 | 41.18802 | 27.24452 | 16495 ft | 358 kts | 146° |
| 2026-05-04 02:03 | 41.17180 | 27.25744 | 16238 ft | 357 kts | 145° |
| 2026-05-04 02:03 | 41.15527 | 27.27065 | 15963 ft | 357 kts | 145° |
| 2026-05-04 02:03 | 41.13898 | 27.28368 | 15714 ft | 359 kts | 146° |
| 2026-05-04 02:04 | 41.12308 | 27.29637 | 15445 ft | 359 kts | 146° |
| 2026-05-04 02:04 | 41.10730 | 27.30894 | 15177 ft | 357 kts | 146° |
| 2026-05-04 02:04 | 41.09112 | 27.32180 | 14896 ft | 354 kts | 146° |
| 2026-05-04 02:04 | 41.07503 | 27.33459 | 14637 ft | 352 kts | 146° |
| 2026-05-04 02:05 | 41.05915 | 27.34720 | 14375 ft | 351 kts | 146° |
| 2026-05-04 02:05 | 41.04326 | 27.35983 | 14106 ft | 351 kts | 146° |
| 2026-05-04 02:05 | 41.02781 | 27.37211 | 13853 ft | 352 kts | 146° |
| 2026-05-04 02:05 | 41.01192 | 27.38473 | 13568 ft | 354 kts | 146° |
| 2026-05-04 02:06 | 40.99609 | 27.39727 | 13289 ft | 353 kts | 146° |
| 2026-05-04 02:06 | 40.98033 | 27.41036 | 12990 ft | 345 kts | 140° |
| 2026-05-04 02:06 | 40.96701 | 27.42669 | 12721 ft | 337 kts | 126° |
| 2026-05-04 02:06 | 40.95650 | 27.44646 | 12484 ft | 333 kts | 115° |
| 2026-05-04 02:07 | 40.94747 | 27.47434 | 12176 ft | 331 kts | 106° |
| 2026-05-04 02:07 | 40.93996 | 27.50117 | 11849 ft | 333 kts | 106° |
| 2026-05-04 02:07 | 40.93212 | 27.52829 | 11539 ft | 334 kts | 107° |
| 2026-05-04 02:07 | 40.92558 | 27.55043 | 11304 ft | 333 kts | 107° |
| 2026-05-04 02:08 | 40.91906 | 27.57239 | 11040 ft | 330 kts | 107° |
| 2026-05-04 02:08 | 40.91251 | 27.59444 | 10775 ft | 326 kts | 107° |
| 2026-05-04 02:08 | 40.90768 | 27.61613 | 10502 ft | 314 kts | 94° |
| 2026-05-04 02:08 | 40.90664 | 27.63986 | 10261 ft | 301 kts | 85° |
| 2026-05-04 02:09 | 40.90684 | 27.66125 | 10032 ft | 296 kts | 86° |
| 2026-05-04 02:09 | 40.90643 | 27.68501 | 9893 ft | 286 kts | 88° |
| 2026-05-04 02:09 | 40.90568 | 27.71020 | 9512 ft | 285 kts | 88° |
| 2026-05-04 02:09 | 40.90499 | 27.73217 | 9280 ft | 281 kts | 88° |
| 2026-05-04 02:10 | 40.90437 | 27.75332 | 9043 ft | 275 kts | 86° |
| 2026-05-04 02:10 | 40.90603 | 27.77644 | 8905 ft | 259 kts | 75° |
| 2026-05-04 02:10 | 40.90948 | 27.79864 | 8688 ft | 251 kts | 73° |
| 2026-05-04 02:10 | 40.91272 | 27.81901 | 8532 ft | 245 kts | 74° |
| 2026-05-04 02:11 | 40.91546 | 27.83754 | 8402 ft | 246 kts | 74° |
| 2026-05-04 02:11 | 40.91782 | 27.85382 | 8289 ft | 246 kts | 75° |
| 2026-05-04 02:11 | 40.92016 | 27.87020 | 8182 ft | 245 kts | 75° |
| 2026-05-04 02:11 | 40.92248 | 27.88662 | 8054 ft | 245 kts | 75° |
| 2026-05-04 02:12 | 40.92448 | 27.90287 | 7941 ft | 244 kts | 77° |
| 2026-05-04 02:12 | 40.92626 | 27.91911 | 7828 ft | 244 kts | 77° |
| 2026-05-04 02:12 | 40.92798 | 27.93531 | 7699 ft | 243 kts | 77° |
| 2026-05-04 02:12 | 40.92968 | 27.95140 | 7591 ft | 242 kts | 77° |
| 2026-05-04 02:13 | 40.93163 | 27.96985 | 7469 ft | 241 kts | 77° |
| 2026-05-04 02:13 | 40.93337 | 27.98628 | 7334 ft | 240 kts | 77° |
| 2026-05-04 02:13 | 40.93511 | 28.00256 | 7228 ft | 239 kts | 76° |
| 2026-05-04 02:13 | 40.93684 | 28.01889 | 7123 ft | 238 kts | 76° |
| 2026-05-04 02:14 | 40.93857 | 28.03504 | 6999 ft | 237 kts | 76° |
| 2026-05-04 02:14 | 40.94043 | 28.05252 | 6875 ft | 236 kts | 76° |
| 2026-05-04 02:14 | 40.94240 | 28.07104 | 6748 ft | 235 kts | 77° |
| 2026-05-04 02:14 | 40.94461 | 28.09182 | 6594 ft | 233 kts | 77° |
| 2026-05-04 02:15 | 40.94675 | 28.11178 | 6453 ft | 233 kts | 77° |
| 2026-05-04 02:15 | 40.94843 | 28.12761 | 6323 ft | 232 kts | 77° |
| 2026-05-04 02:15 | 40.95009 | 28.14325 | 6204 ft | 231 kts | 77° |
| 2026-05-04 02:15 | 40.95178 | 28.15916 | 6085 ft | 230 kts | 77° |
| 2026-05-04 02:16 | 40.95341 | 28.17457 | 5977 ft | 230 kts | 77° |
| 2026-05-04 02:16 | 40.95511 | 28.19068 | 5855 ft | 229 kts | 77° |
| 2026-05-04 02:16 | 40.95678 | 28.20652 | 5733 ft | 228 kts | 77° |
| 2026-05-04 02:16 | 40.95853 | 28.22308 | 5612 ft | 227 kts | 77° |
| 2026-05-04 02:17 | 40.96061 | 28.24280 | 5471 ft | 227 kts | 77° |
| 2026-05-04 02:17 | 40.96232 | 28.25895 | 5359 ft | 227 kts | 77° |
| 2026-05-04 02:17 | 40.96408 | 28.27588 | 5243 ft | 227 kts | 77° |
| 2026-05-04 02:17 | 40.96591 | 28.29322 | 5111 ft | 227 kts | 77° |
| 2026-05-04 02:18 | 40.96794 | 28.31292 | 4955 ft | 227 kts | 77° |
| 2026-05-04 02:18 | 40.97004 | 28.33248 | 4823 ft | 228 kts | 77° |
| 2026-05-04 02:18 | 40.97216 | 28.35258 | 4687 ft | 230 kts | 77° |
| 2026-05-04 02:18 | 40.97424 | 28.37218 | 4562 ft | 231 kts | 77° |
| 2026-05-04 02:19 | 40.97590 | 28.39064 | 4402 ft | 226 kts | 81° |
| 2026-05-04 02:19 | 40.97610 | 28.40844 | 4250 ft | 219 kts | 84° |
| 2026-05-04 02:19 | 40.97593 | 28.42517 | 4135 ft | 216 kts | 83° |
| 2026-05-04 02:19 | 40.97577 | 28.44485 | 3981 ft | 216 kts | 83° |
| 2026-05-04 02:20 | 40.97568 | 28.46464 | 3850 ft | 216 kts | 83° |
| 2026-05-04 02:20 | 40.97561 | 28.48387 | 3723 ft | 218 kts | 82° |
| 2026-05-04 02:20 | 40.97495 | 28.50360 | 3564 ft | 221 kts | 93° |
| 2026-05-04 02:20 | 40.97156 | 28.52379 | 3437 ft | 223 kts | 96° |
| 2026-05-04 02:21 | 40.96798 | 28.54367 | 3283 ft | 226 kts | 95° |
| 2026-05-04 02:21 | 40.96467 | 28.56299 | 3138 ft | 227 kts | 95° |
| 2026-05-04 02:21 | 40.96141 | 28.58269 | 3024 ft | 222 kts | 94° |
| 2026-05-04 02:21 | 40.95881 | 28.60213 | 2925 ft | 206 kts | 84° |
| 2026-05-04 02:22 | 40.95892 | 28.62079 | 2946 ft | 201 kts | 80° |
| 2026-05-04 02:22 | 40.95937 | 28.63940 | 2976 ft | 205 kts | 80° |
| 2026-05-04 02:22 | 40.95977 | 28.65840 | 2924 ft | 208 kts | 80° |
| 2026-05-04 02:22 | 40.96242 | 28.67635 | 2905 ft | 192 kts | 54° |
| 2026-05-04 02:23 | 40.97094 | 28.68907 | 2925 ft | 183 kts | 35° |
| 2026-05-04 02:23 | 40.98174 | 28.69819 | 2931 ft | 187 kts | 28° |
| 2026-05-04 02:23 | 40.99324 | 28.70671 | 2925 ft | 188 kts | 27° |
| 2026-05-04 02:23 | 41.00527 | 28.71220 | 2911 ft | 182 kts | 5° |
| 2026-05-04 02:24 | 41.01800 | 28.71189 | 2929 ft | 185 kts | 2° |
| 2026-05-04 02:24 | 41.03086 | 28.71184 | 2921 ft | 184 kts | 2° |
| 2026-05-04 02:24 | 41.04352 | 28.71173 | 2911 ft | 180 kts | 2° |
| 2026-05-04 02:24 | 41.05589 | 28.71152 | 2906 ft | 176 kts | 2° |
| 2026-05-04 02:25 | 41.06821 | 28.71129 | 2913 ft | 178 kts | 2° |
| 2026-05-04 02:25 | 41.08074 | 28.71105 | 2929 ft | 182 kts | 1° |
| 2026-05-04 02:25 | 41.09339 | 28.71080 | 2944 ft | 182 kts | 2° |
| 2026-05-04 02:25 | 41.10559 | 28.71056 | 2943 ft | 168 kts | 2° |
| 2026-05-04 02:26 | 41.11691 | 28.71032 | 2919 ft | 157 kts | 2° |
| 2026-05-04 02:26 | 41.12775 | 28.71011 | 2985 ft | 156 kts | 2° |
| 2026-05-04 02:26 | 41.13883 | 28.70991 | 2760 ft | 161 kts | 2° |
| 2026-05-04 02:26 | 41.14976 | 28.70968 | 2547 ft | 152 kts | 1° |
| 2026-05-04 02:27 | 41.16022 | 28.70948 | 2360 ft | 151 kts | 1° |
| 2026-05-04 02:27 | 41.17044 | 28.70930 | 2204 ft | 144 kts | 0° |
| 2026-05-04 02:27 | 41.18019 | 28.70909 | 2055 ft | 142 kts | 1° |
| 2026-05-04 02:27 | 41.19023 | 28.70891 | 1843 ft | 141 kts | 360° |
| 2026-05-04 02:28 | 41.19996 | 28.70869 | 1658 ft | 140 kts | 359° |
| 2026-05-04 02:28 | 41.21007 | 28.70845 | 1495 ft | 149 kts | 359° |
| 2026-05-04 02:28 | 41.22035 | 28.70813 | 1353 ft | 145 kts | 358° |
| 2026-05-04 02:28 | 41.23005 | 28.70805 | 1122 ft | 142 kts | 359° |
| 2026-05-04 02:29 | 41.23992 | 28.70793 | 888 ft | 140 kts | 358° |
| 2026-05-04 02:29 | 41.24985 | 28.70756 | 677 ft | 145 kts | 359° |
| 2026-05-04 02:29 | 41.25980 | 28.70741 | 528 ft | 142 kts | 359° |
| 2026-05-04 02:29 | 41.26969 | 28.70734 | 350 ft | 142 kts | 360° |
| 2026-05-04 02:30 | 41.27872 | 28.70712 | 304 ft | 110 kts | 359° |
| 2026-05-04 02:30 | 41.28485 | 28.70700 | 276 ft | 66 kts | 359° |
| 2026-05-04 02:30 | 41.28840 | 28.70696 | 262 ft | 35 kts | 5° |
| 2026-05-04 02:30 | 41.29039 | 28.70783 | 259 ft | 19 kts | 31° |
| 2026-05-04 02:31 | 41.29138 | 28.70862 | 256 ft | 16 kts | 30° |
| 2026-05-04 02:31 | 41.29230 | 28.70954 | 253 ft | 18 kts | 62° |
| 2026-05-04 02:31 | 41.29236 | 28.71109 | 254 ft | 16 kts | 107° |
| 2026-05-04 02:31 | 41.29134 | 28.71166 | 257 ft | 20 kts | 179° |
| 2026-05-04 02:32 | 41.28957 | 28.71171 | 263 ft | 31 kts | 180° |
| 2026-05-04 02:32 | 41.28721 | 28.71176 | 272 ft | 37 kts | 179° |
| 2026-05-04 02:32 | 41.28449 | 28.71179 | 283 ft | 40 kts | 180° |
| 2026-05-04 02:32 | 41.28190 | 28.71182 | 293 ft | 34 kts | 179° |
| 2026-05-04 02:33 | 41.27977 | 28.71188 | 299 ft | 28 kts | 178° |
| 2026-05-04 02:33 | 41.27839 | 28.71192 | 306 ft | 10 kts | 181° |
| 2026-05-04 02:33 | 41.27798 | 28.71194 | 304 ft | 0 kts | 168° |
| 2026-05-04 02:34 | 41.27772 | 28.71228 | 307 ft | 10 kts | 115° |
| 2026-05-04 02:34 | 41.27766 | 28.71309 | 308 ft | 7 kts | 90° |
| 2026-05-04 02:34 | 41.27767 | 28.71359 | 306 ft | 2 kts | 89° |
| 2026-05-04 02:34 | 41.27767 | 28.71363 | 305 ft | 0 kts | 89° |